Time;durP1;ratioP1;P1;durP2;ratioP2;P2;SDS_P1;SDS_P2;PMS_P1;PMS_P2;Temp;Humidity;BMP_temperature;BMP_pressure;BME280_temperature;BME280_humidity;BME280_pressure;Samples;Min_cycle;Max_cycle;Signal;HPM_P1;HPM_P2
2023/08/20 00:01:25;;;;;;;8.20;4.32;;;19.70;99.90;;;;;;5039883;28;20043;-88
2023/08/20 00:03:51;;;;;;;9.10;4.47;;;19.80;99.90;;;;;;5074292;28;20048;-88
2023/08/20 00:06:18;;;;;;;7.85;4.93;;;19.70;99.90;;;;;;5057238;28;20040;-88
2023/08/20 00:08:44;;;;;;;8.27;4.43;;;19.80;99.90;;;;;;5079009;28;20040;-88
2023/08/20 00:11:11;;;;;;;9.50;4.45;;;19.80;99.90;;;;;;5075754;28;20074;-90
2023/08/20 00:13:36;;;;;;;11.20;5.50;;;19.70;99.90;;;;;;5064519;28;20107;-88
2023/08/20 00:16:03;;;;;;;8.48;4.25;;;19.70;99.90;;;;;;5078633;28;20052;-88
2023/08/20 00:18:29;;;;;;;11.02;4.15;;;19.70;99.90;;;;;;5026967;28;20500;-88
2023/08/20 00:20:55;;;;;;;9.70;4.47;;;19.60;99.90;;;;;;5067054;28;20044;-89
2023/08/20 00:23:21;;;;;;;5.80;4.40;;;19.70;99.90;;;;;;5044809;28;20036;-88
2023/08/20 00:25:48;;;;;;;9.23;4.75;;;19.60;99.90;;;;;;5077945;28;20404;-88
2023/08/20 00:28:13;;;;;;;10.10;4.78;;;19.60;99.90;;;;;;5057736;28;20040;-88
2023/08/20 00:30:39;;;;;;;11.27;4.88;;;19.60;99.90;;;;;;5045602;28;20050;-90
2023/08/20 00:33:05;;;;;;;10.40;4.97;;;19.60;99.90;;;;;;5037667;28;20032;-88
2023/08/20 00:35:31;;;;;;;7.70;4.53;;;19.60;99.90;;;;;;5053755;28;20032;-87
2023/08/20 00:37:57;;;;;;;13.55;5.72;;;19.60;99.90;;;;;;5063836;28;20114;-86
2023/08/20 00:40:23;;;;;;;9.13;4.60;;;19.50;99.90;;;;;;5053617;28;20391;-91
2023/08/20 00:42:49;;;;;;;7.50;4.28;;;19.60;99.90;;;;;;5058513;28;20408;-89
2023/08/20 00:45:16;;;;;;;9.15;4.75;;;19.60;99.90;;;;;;5056583;28;20050;-87
2023/08/20 00:47:48;;;;;;;12.07;5.93;;;19.50;99.90;;;;;;5028272;28;20047;-87
2023/08/20 00:50:14;;;;;;;13.55;5.10;;;19.60;99.90;;;;;;5055782;28;20067;-87
2023/08/20 00:52:40;;;;;;;16.88;5.97;;;19.60;99.90;;;;;;5056584;28;20067;-90
2023/08/20 00:55:10;;;;;;;8.88;5.15;;;19.60;99.90;;;;;;5028047;28;20036;-90
2023/08/20 00:57:40;;;;;;;8.80;4.60;;;19.60;99.90;;;;;;5034744;28;20518;-88
2023/08/20 01:00:10;;;;;;;8.30;4.90;;;19.50;99.90;;;;;;5051786;28;20055;-89
2023/08/20 01:02:37;;;;;;;8.98;5.18;;;19.50;99.90;;;;;;5028475;28;20068;-88
2023/08/20 01:05:07;;;;;;;6.97;4.75;;;19.50;99.90;;;;;;5060826;28;20400;-88
2023/08/20 01:07:53;;;;;;;10.00;4.90;;;19.40;99.90;;;;;;5063382;28;20135;-88
2023/08/20 01:10:51;;;;;;;12.00;6.55;;;19.50;99.90;;;;;;5048720;28;20033;-88
2023/08/20 01:13:17;;;;;;;10.32;4.85;;;19.50;99.90;;;;;;5055598;28;20036;-88
2023/08/20 01:15:44;;;;;;;8.95;4.88;;;19.40;99.90;;;;;;5059499;28;20060;-87
2023/08/20 01:18:09;;;;;;;9.43;4.70;;;19.50;99.90;;;;;;5037103;28;20085;-88
2023/08/20 01:20:52;;;;;;;10.90;4.68;;;19.60;99.90;;;;;;5052443;28;20083;-85
2023/08/20 01:23:38;;;;;;;9.57;4.88;;;19.30;99.90;;;;;;5073713;28;20041;-87
2023/08/20 01:26:29;;;;;;;8.32;4.22;;;19.40;99.90;;;;;;5063499;28;20040;-86
2023/08/20 01:28:58;;;;;;;7.43;4.80;;;19.30;99.90;;;;;;5081206;28;20020;-85
2023/08/20 01:31:26;;;;;;;10.02;4.22;;;19.30;99.90;;;;;;5078126;28;20024;-87
2023/08/20 01:33:52;;;;;;;7.53;4.57;;;19.40;99.90;;;;;;5081731;28;20044;-88
2023/08/20 01:36:18;;;;;;;14.20;4.90;;;19.20;99.90;;;;;;5062753;28;20043;-87
2023/08/20 01:38:44;;;;;;;10.60;5.07;;;;;;;;;;5047052;28;20047;-85
2023/08/20 01:41:10;;;;;;;12.02;5.80;;;19.20;99.90;;;;;;5062286;28;20063;-87
2023/08/20 01:43:36;;;;;;;7.70;5.20;;;19.20;99.90;;;;;;5063646;28;20017;-86
2023/08/20 01:46:02;;;;;;;9.95;4.60;;;19.40;99.90;;;;;;5070504;28;20051;-85
2023/08/20 01:48:27;;;;;;;10.88;5.68;;;19.40;99.90;;;;;;5042606;28;20052;-87
2023/08/20 01:50:53;;;;;;;8.90;5.78;;;19.20;99.90;;;;;;5036663;28;20032;-87
2023/08/20 01:53:20;;;;;;;8.65;5.20;;;19.30;99.90;;;;;;5045653;28;20096;-86
2023/08/20 01:55:46;;;;;;;11.10;6.05;;;19.30;99.90;;;;;;5029503;28;20040;-89
2023/08/20 01:58:11;;;;;;;8.88;4.80;;;19.20;99.90;;;;;;5054608;28;20051;-86
2023/08/20 02:00:37;;;;;;;9.70;4.97;;;19.20;99.90;;;;;;5059901;28;20055;-86
2023/08/20 02:03:03;;;;;;;8.63;5.18;;;19.40;99.90;;;;;;5080246;28;20036;-86
2023/08/20 02:05:29;;;;;;;8.55;5.13;;;19.00;99.90;;;;;;5050160;28;20071;-87
2023/08/20 02:07:55;;;;;;;8.48;4.95;;;19.00;99.90;;;;;;5059495;28;20044;-87
2023/08/20 02:10:21;;;;;;;10.43;4.55;;;19.00;99.90;;;;;;5059678;28;20402;-89
2023/08/20 02:12:47;;;;;;;10.00;5.00;;;19.00;99.90;;;;;;5079287;28;20043;-89
2023/08/20 02:15:13;;;;;;;10.25;5.13;;;19.00;99.90;;;;;;5062145;28;20044;-87
2023/08/20 02:17:38;;;;;;;9.27;4.20;;;18.90;99.90;;;;;;5016799;28;20029;-88
2023/08/20 02:20:05;;;;;;;12.07;4.50;;;19.00;99.90;;;;;;5046448;28;20048;-90
2023/08/20 02:22:31;;;;;;;9.63;5.05;;;18.90;99.90;;;;;;5015500;28;20049;-88
2023/08/20 02:24:56;;;;;;;7.65;4.88;;;18.80;99.90;;;;;;5007385;28;20477;-88
2023/08/20 02:27:22;;;;;;;8.45;5.50;;;18.90;99.90;;;;;;5008816;28;20094;-87
2023/08/20 02:29:49;;;;;;;11.05;4.68;;;18.90;99.90;;;;;;4992057;28;20475;-87
2023/08/20 02:32:14;;;;;;;9.52;5.40;;;18.80;99.90;;;;;;5021207;28;20534;-87
2023/08/20 02:34:41;;;;;;;8.30;5.47;;;18.90;99.90;;;;;;5037734;28;20037;-89
2023/08/20 02:37:07;;;;;;;8.85;5.18;;;19.10;99.90;;;;;;5032838;28;20046;-88
2023/08/20 02:39:33;;;;;;;9.30;5.30;;;19.10;99.90;;;;;;5004569;28;20037;-87
2023/08/20 02:41:59;;;;;;;8.90;5.53;;;19.10;99.90;;;;;;5016934;28;20036;-88
2023/08/20 02:44:24;;;;;;;10.32;5.70;;;19.00;99.90;;;;;;5007674;28;20032;-90
2023/08/20 02:46:50;;;;;;;9.68;5.03;;;19.10;99.90;;;;;;5040010;28;20131;-87
2023/08/20 02:49:16;;;;;;;11.90;6.28;;;19.20;99.90;;;;;;4998499;28;20048;-87
2023/08/20 02:51:43;;;;;;;10.18;6.38;;;19.20;99.90;;;;;;5029906;28;20033;-88
2023/08/20 02:54:09;;;;;;;11.63;7.30;;;19.00;99.90;;;;;;5034486;28;20397;-88
2023/08/20 02:56:34;;;;;;;11.70;7.03;;;19.10;99.90;;;;;;5009578;28;20032;-88
2023/08/20 02:59:00;;;;;;;10.93;7.10;;;19.10;99.90;;;;;;5012588;28;20115;-90
2023/08/20 03:01:26;;;;;;;9.10;6.70;;;19.10;99.90;;;;;;5004089;28;20081;-88
2023/08/20 03:03:52;;;;;;;14.48;7.70;;;19.10;99.90;;;;;;5018566;28;20616;-87
2023/08/20 03:06:18;;;;;;;14.57;7.53;;;19.10;99.90;;;;;;5052317;28;20049;-88
2023/08/20 03:08:45;;;;;;;11.05;6.97;;;18.90;99.90;;;;;;5037507;28;20439;-88
2023/08/20 03:11:11;;;;;;;9.18;7.03;;;19.10;99.90;;;;;;5024216;28;20047;-87
2023/08/20 03:13:37;;;;;;;13.80;8.35;;;19.60;99.90;;;;;;5007852;28;20044;-88
2023/08/20 03:16:03;;;;;;;14.32;8.23;;;19.10;99.90;;;;;;5023980;28;20500;-89
2023/08/20 03:18:29;;;;;;;12.23;8.10;;;19.10;99.90;;;;;;5006308;28;20817;-87
2023/08/20 03:20:58;;;;;;;18.17;8.95;;;19.10;99.90;;;;;;5023195;28;20041;-87
2023/08/20 03:23:24;;;;;;;18.20;8.32;;;19.20;99.90;;;;;;4998866;28;20096;-87
2023/08/20 03:25:50;;;;;;;11.05;7.45;;;19.40;99.90;;;;;;5021742;28;20049;-87
2023/08/20 03:28:17;;;;;;;10.50;6.95;;;19.00;99.90;;;;;;5023991;28;20557;-87
2023/08/20 03:30:43;;;;;;;15.27;7.38;;;19.20;99.90;;;;;;5047655;28;20041;-88
2023/08/20 03:33:09;;;;;;;8.73;7.53;;;19.00;99.90;;;;;;5021134;28;20029;-87
2023/08/20 03:35:35;;;;;;;12.32;7.43;;;19.30;99.90;;;;;;5004221;28;20044;-89
2023/08/20 03:38:01;;;;;;;12.25;7.57;;;19.10;99.90;;;;;;5022643;28;20104;-88
2023/08/20 03:40:28;;;;;;;13.68;7.68;;;19.10;99.90;;;;;;5048914;28;20083;-88
2023/08/20 03:42:54;;;;;;;13.35;7.03;;;19.00;99.90;;;;;;5035306;28;20093;-88
2023/08/20 03:45:23;;;;;;;10.23;7.18;;;19.20;99.90;;;;;;5019960;28;20044;-87
2023/08/20 03:47:48;;;;;;;10.25;6.80;;;19.00;99.90;;;;;;5037397;28;20094;-87
2023/08/20 03:50:14;;;;;;;12.77;7.30;;;19.20;99.90;;;;;;5016688;28;20037;-88
2023/08/20 03:52:40;;;;;;;11.30;7.53;;;19.10;99.90;;;;;;5033279;28;20043;-88
2023/08/20 03:55:06;;;;;;;10.68;6.88;;;19.10;99.90;;;;;;5021943;28;20037;-87
2023/08/20 03:57:32;;;;;;;9.63;7.30;;;19.00;99.90;;;;;;5013855;28;20492;-87
2023/08/20 03:59:58;;;;;;;9.48;6.85;;;19.00;99.90;;;;;;5023335;28;20046;-91
2023/08/20 04:02:24;;;;;;;12.60;7.10;;;19.00;99.90;;;;;;5024538;28;20092;-88
2023/08/20 04:04:59;;;;;;;10.02;6.50;;;19.20;99.90;;;;;;5016994;28;20102;-89
2023/08/20 04:07:32;;;;;;;9.48;7.32;;;18.80;99.90;;;;;;5022108;28;20079;-88
2023/08/20 04:10:01;;;;;;;14.30;7.38;;;19.30;99.90;;;;;;5021241;28;20043;-88
2023/08/20 04:12:31;;;;;;;13.40;7.32;;;19.30;99.90;;;;;;5037327;28;20101;-89
2023/08/20 04:15:04;;;;;;;11.73;7.65;;;18.70;99.90;;;;;;5036715;28;20124;-89
2023/08/20 04:17:31;;;;;;;14.05;7.97;;;19.00;99.90;;;;;;5021117;28;20045;-88
2023/08/20 04:19:59;;;;;;;10.07;7.95;;;18.90;99.90;;;;;;5015368;28;20130;-89
2023/08/20 04:22:25;;;;;;;15.77;9.00;;;18.50;99.90;;;;;;5036494;28;20178;-89
2023/08/20 04:25:00;;;;;;;12.68;8.98;;;19.10;99.90;;;;;;5042009;28;20036;-88
2023/08/20 04:27:34;;;;;;;13.15;7.85;;;19.30;99.90;;;;;;5031476;28;20045;-87
2023/08/20 04:30:06;;;;;;;16.38;7.53;;;18.80;99.90;;;;;;5040840;28;20056;-89
2023/08/20 04:32:40;;;;;;;11.30;7.25;;;16.90;99.90;;;;;;5029699;28;20040;-88
2023/08/20 04:35:13;;;;;;;11.25;7.32;;;18.60;99.90;;;;;;5040440;28;20028;-87
2023/08/20 04:37:45;;;;;;;13.60;7.20;;;19.00;99.90;;;;;;5031046;28;20033;-89
2023/08/20 04:40:22;;;;;;;12.85;7.38;;;18.90;99.90;;;;;;5040257;28;20051;-88
2023/08/20 04:42:55;;;;;;;11.48;7.43;;;19.30;99.90;;;;;;5039073;28;20041;-86
2023/08/20 04:45:24;;;;;;;8.32;6.22;;;18.80;99.90;;;;;;5043390;28;20032;-88
2023/08/20 04:47:56;;;;;;;11.75;7.15;;;18.70;99.90;;;;;;5040444;28;20391;-88
2023/08/20 04:50:28;;;;;;;;;;;19.10;99.90;;;;;;5020180;28;20033;-87
2023/08/20 04:53:01;;;;;;;13.75;6.25;;;18.70;99.90;;;;;;5033531;28;20247;-87
2023/08/20 04:55:30;;;;;;;10.10;5.97;;;18.90;99.90;;;;;;5030550;28;20039;-88
2023/08/20 04:58:04;;;;;;;11.25;5.90;;;16.90;99.90;;;;;;5042926;28;20072;-90
2023/08/20 05:00:36;;;;;;;9.93;5.65;;;18.90;99.90;;;;;;5040747;28;20110;-87
2023/08/20 05:03:06;;;;;;;11.68;6.40;;;21.20;99.90;;;;;;5036116;28;20113;-88
2023/08/20 05:05:35;;;;;;;11.52;6.10;;;17.20;99.90;;;;;;5038359;28;20079;-87
2023/08/20 05:08:02;;;;;;;9.60;6.00;;;19.20;99.90;;;;;;4997912;28;20127;-88
2023/08/20 05:10:29;;;;;;;10.80;6.05;;;18.80;99.90;;;;;;5023697;28;20036;-88
2023/08/20 05:12:55;;;;;;;12.07;5.78;;;18.80;99.90;;;;;;5031600;28;20033;-89
2023/08/20 05:15:22;;;;;;;13.35;7.03;;;18.90;99.90;;;;;;5023292;28;20044;-88
2023/08/20 05:17:48;;;;;;;9.18;5.85;;;19.00;99.90;;;;;;5026054;28;20449;-88
2023/08/20 05:20:14;;;;;;;12.68;6.28;;;19.30;99.90;;;;;;5024949;28;20128;-87
2023/08/20 05:22:46;;;;;;;12.43;6.38;;;18.90;99.90;;;;;;5020673;28;20048;-87
2023/08/20 05:25:12;;;;;;;10.13;6.60;;;19.10;99.90;;;;;;5028942;28;20040;-87
2023/08/20 05:27:38;;;;;;;9.85;6.15;;;19.00;99.90;;;;;;5022091;28;20389;-88
2023/08/20 05:30:04;;;;;;;12.27;6.40;;;17.40;99.90;;;;;;5031978;28;20036;-87
2023/08/20 05:32:30;;;;;;;8.95;5.43;;;19.00;99.90;;;;;;5023034;28;20059;-89
2023/08/20 05:34:56;;;;;;;9.50;6.70;;;19.00;99.90;;;;;;5036397;28;20485;-89
2023/08/20 05:37:22;;;;;;;7.75;5.53;;;19.10;99.90;;;;;;5029282;28;20420;-88
2023/08/20 05:39:51;;;;;;;12.68;6.63;;;17.00;99.90;;;;;;5018415;28;20041;-89
2023/08/20 05:42:17;;;;;;;13.52;6.38;;;19.40;99.90;;;;;;5023424;28;20044;-88
2023/08/20 05:44:44;;;;;;;9.18;6.32;;;19.20;99.90;;;;;;5039563;28;20070;-88
2023/08/20 05:47:10;;;;;;;12.57;5.90;;;19.10;99.90;;;;;;5037871;28;20064;-88
2023/08/20 05:49:36;;;;;;;10.95;6.07;;;19.10;99.90;;;;;;5016105;28;20133;-89
2023/08/20 05:52:02;;;;;;;8.80;6.10;;;18.60;99.90;;;;;;5039918;28;20066;-88
2023/08/20 05:54:31;;;;;;;9.63;5.53;;;18.30;99.90;;;;;;5028173;28;20413;-87
2023/08/20 05:57:01;;;;;;;11.35;5.88;;;19.30;99.90;;;;;;5022991;28;20036;-88
2023/08/20 05:59:27;;;;;;;12.30;5.95;;;19.20;99.90;;;;;;5037819;28;20503;-89
2023/08/20 06:01:54;;;;;;;14.15;6.45;;;19.20;99.90;;;;;;5008304;28;20037;-89
2023/08/20 06:04:20;;;;;;;10.57;5.72;;;19.60;99.90;;;;;;5019997;28;20102;-87
2023/08/20 06:06:47;;;;;;;10.50;5.82;;;19.40;99.90;;;;;;5019923;28;20531;-87
2023/08/20 06:09:19;;;;;;;10.40;6.10;;;19.50;99.90;;;;;;5031025;28;20501;-88
2023/08/20 06:11:46;;;;;;;8.35;5.63;;;19.60;99.90;;;;;;5029349;28;20373;-89
2023/08/20 06:14:19;;;;;;;9.15;5.85;;;19.70;99.90;;;;;;5034506;28;20050;-87
2023/08/20 06:16:45;;;;;;;11.98;5.88;;;20.10;99.90;;;;;;5040550;28;20083;-88
2023/08/20 06:19:12;;;;;;;9.02;5.72;;;19.80;99.90;;;;;;5016661;28;20044;-87
2023/08/20 06:21:39;;;;;;;11.02;5.75;;;20.00;99.90;;;;;;5024894;28;20123;-86
2023/08/20 06:24:07;;;;;;;10.23;5.90;;;20.00;99.90;;;;;;5034698;28;20028;-88
2023/08/20 06:26:35;;;;;;;6.53;5.28;;;19.80;99.90;;;;;;5011930;28;20044;-87
2023/08/20 06:29:12;;;;;;;10.55;5.30;;;20.20;99.90;;;;;;5033548;28;20078;-88
2023/08/20 06:31:42;;;;;;;10.55;5.22;;;19.70;99.90;;;;;;5017239;28;20438;-88
2023/08/20 06:34:13;;;;;;;10.57;5.63;;;20.50;99.90;;;;;;5051492;28;20037;-89
2023/08/20 06:36:44;;;;;;;12.85;5.68;;;20.30;99.90;;;;;;5018535;28;20167;-87
2023/08/20 06:39:10;;;;;;;11.02;5.18;;;20.60;99.90;;;;;;5038508;28;20036;-87
2023/08/20 06:41:36;;;;;;;11.10;5.55;;;20.10;99.90;;;;;;5046332;28;20045;-87
2023/08/20 06:44:03;;;;;;;9.30;5.18;;;20.50;99.90;;;;;;5027997;28;20029;-86
2023/08/20 06:46:29;;;;;;;9.18;4.85;;;20.50;99.90;;;;;;5025772;28;20037;-87
2023/08/20 06:48:55;;;;;;;10.50;5.43;;;20.40;99.90;;;;;;5025991;28;20409;-88
2023/08/20 06:51:21;;;;;;;12.15;5.15;;;20.50;99.90;;;;;;5005419;28;20037;-87
2023/08/20 06:53:48;;;;;;;12.85;4.93;;;20.60;99.90;;;;;;5032814;28;20467;-86
2023/08/20 06:56:14;;;;;;;12.50;5.32;;;22.90;99.90;;;;;;5029510;28;20098;-86
2023/08/20 06:58:41;;;;;;;12.25;4.65;;;20.70;99.90;;;;;;5008270;28;20045;-86
2023/08/20 07:01:07;;;;;;;11.20;4.65;;;20.80;99.90;;;;;;5031837;28;20045;-86
2023/08/20 07:03:40;;;;;;;7.45;4.05;;;21.30;99.90;;;;;;5056233;28;20032;-86
2023/08/20 07:06:07;;;;;;;14.02;5.55;;;20.90;99.90;;;;;;5026133;28;20071;-87
2023/08/20 07:08:32;;;;;;;9.45;4.55;;;21.20;99.90;;;;;;5061908;28;20040;-87
2023/08/20 07:10:59;;;;;;;8.15;4.03;;;21.40;99.90;;;;;;5034098;28;20037;-86
2023/08/20 07:13:24;;;;;;;10.48;4.60;;;21.40;99.90;;;;;;5021801;28;20036;-86
2023/08/20 07:15:51;;;;;;;9.20;4.10;;;21.60;99.90;;;;;;5030379;28;20036;-85
2023/08/20 07:18:17;;;;;;;11.07;3.80;;;21.30;99.90;;;;;;5022553;28;20052;-87
2023/08/20 07:20:43;;;;;;;12.23;4.03;;;21.40;99.90;;;;;;5003224;28;20048;-87
2023/08/20 07:23:10;;;;;;;11.50;4.18;;;21.60;99.90;;;;;;5045538;28;20070;-87
2023/08/20 07:25:38;;;;;;;7.95;3.90;;;21.50;99.90;;;;;;5037370;28;20040;-88
2023/08/20 07:28:05;;;;;;;13.60;4.25;;;21.70;99.90;;;;;;5023325;28;20044;-87
2023/08/20 07:30:31;;;;;;;11.27;4.15;;;22.00;99.90;;;;;;5022385;28;20033;-88
2023/08/20 07:32:57;;;;;;;14.07;3.80;;;22.00;99.90;;;;;;5038355;28;20045;-87
2023/08/20 07:35:23;;;;;;;11.07;3.40;;;22.20;99.90;;;;;;5031892;28;20044;-87
2023/08/20 07:37:49;;;;;;;11.75;4.65;;;21.90;99.90;;;;;;5020690;28;20033;-88
2023/08/20 07:40:15;;;;;;;6.50;3.40;;;22.00;99.90;;;;;;5009869;28;20127;-87
2023/08/20 07:42:41;;;;;;;7.95;3.03;;;21.30;99.90;;;;;;5036801;28;20151;-87
2023/08/20 07:45:13;;;;;;;9.40;3.25;;;22.40;99.90;;;;;;5024281;28;20045;-87
2023/08/20 07:47:39;;;;;;;9.98;3.13;;;22.30;99.90;;;;;;5028038;28;20127;-87
2023/08/20 07:50:05;;;;;;;8.57;3.20;;;22.50;99.90;;;;;;5032256;28;20054;-87
2023/08/20 07:52:32;;;;;;;9.95;3.25;;;22.30;99.90;;;;;;5037189;28;20509;-87
2023/08/20 07:54:58;;;;;;;10.38;3.50;;;22.50;99.90;;;;;;5022383;28;20646;-88
2023/08/20 07:57:24;;;;;;;5.90;2.80;;;22.50;99.90;;;;;;5014593;28;20075;-88
2023/08/20 07:59:50;;;;;;;10.13;3.10;;;22.60;99.90;;;;;;5031624;28;20165;-87
2023/08/20 08:02:16;;;;;;;8.48;2.70;;;22.90;99.90;;;;;;5013314;28;20493;-86
2023/08/20 08:04:42;;;;;;;7.55;2.88;;;22.60;99.90;;;;;;5030146;28;20042;-86
2023/08/20 08:07:09;;;;;;;6.03;2.63;;;22.60;99.90;;;;;;5011040;28;20041;-87
2023/08/20 08:09:35;;;;;;;9.15;3.60;;;22.90;99.90;;;;;;5013108;28;20105;-86
2023/08/20 08:12:01;;;;;;;9.93;2.90;;;23.00;99.90;;;;;;5017889;28;20124;-87
2023/08/20 08:14:27;;;;;;;6.97;2.50;;;23.10;99.90;;;;;;5013956;28;20054;-86
2023/08/20 08:16:54;;;;;;;8.82;2.85;;;23.10;99.90;;;;;;5029346;28;20108;-86
2023/08/20 08:19:23;;;;;;;9.75;2.67;;;23.50;99.90;;;;;;4996117;28;20040;-86
2023/08/20 08:21:49;;;;;;;8.02;3.03;;;23.20;99.90;;;;;;5006215;28;20808;-85
2023/08/20 08:24:15;;;;;;;10.13;2.85;;;23.20;99.90;;;;;;5009226;28;20052;-85
2023/08/20 08:26:41;;;;;;;10.20;2.42;;;23.40;99.90;;;;;;5002914;28;20597;-86
2023/08/20 08:29:09;;;;;;;8.65;2.25;;;23.50;99.90;;;;;;5000678;28;20033;-85
2023/08/20 08:31:35;;;;;;;6.18;2.10;;;23.60;99.90;;;;;;5013675;28;20564;-85
2023/08/20 08:34:04;;;;;;;9.20;2.65;;;23.60;99.90;;;;;;5003602;28;20040;-85
2023/08/20 08:36:30;;;;;;;5.53;2.08;;;23.50;99.90;;;;;;5014367;28;20040;-86
2023/08/20 08:38:56;;;;;;;6.57;2.05;;;23.70;99.90;;;;;;5018300;28;20047;-86
2023/08/20 08:41:26;;;;;;;8.88;2.58;;;21.90;99.90;;;;;;5043936;28;20043;-86
2023/08/20 08:43:53;;;;;;;8.35;2.22;;;23.10;99.90;;;;;;4995356;28;20133;-86
2023/08/20 08:46:27;;;;;;;6.82;2.33;;;23.90;99.90;;;;;;5043639;28;20494;-86
2023/08/20 08:48:54;;;;;;;6.55;2.08;;;24.10;99.90;;;;;;5012187;28;20127;-86
2023/08/20 08:51:20;;;;;;;6.82;1.77;;;22.10;99.90;;;;;;5033007;28;20103;-86
2023/08/20 08:53:46;;;;;;;8.00;1.83;;;24.20;99.90;;;;;;5034556;28;20036;-86
2023/08/20 08:56:12;;;;;;;5.22;2.25;;;23.70;99.90;;;;;;5034401;28;20036;-86
2023/08/20 08:58:38;;;;;;;6.00;2.10;;;24.40;99.90;;;;;;5015612;28;20040;-86
2023/08/20 09:01:07;;;;;;;6.07;2.05;;;24.60;99.90;;;;;;5025598;28;20032;-86
2023/08/20 09:03:33;;;;;;;11.95;2.10;;;24.60;99.90;;;;;;5021312;28;20036;-86
2023/08/20 09:06:03;;;;;;;5.25;1.75;;;24.50;99.90;;;;;;5011942;28;20052;-85
2023/08/20 09:08:32;;;;;;;5.70;2.10;;;24.80;99.90;;;;;;5051796;28;20072;-86
2023/08/20 09:11:01;;;;;;;6.13;1.88;;;26.80;99.90;;;;;;5028682;28;20044;-86
2023/08/20 09:13:38;;;;;;;5.90;1.70;;;25.00;99.90;;;;;;5035008;28;20044;-86
2023/08/20 09:16:06;;;;;;;9.38;2.10;;;25.10;99.90;;;;;;5032267;28;20062;-86
2023/08/20 09:18:37;;;;;;;6.95;1.83;;;25.20;99.90;;;;;;5049595;28;20553;-85
2023/08/20 09:21:10;;;;;;;5.38;1.45;;;25.30;99.90;;;;;;5038014;28;20070;-86
2023/08/20 09:23:38;;;;;;;4.63;1.25;;;25.40;99.90;;;;;;5048696;28;20033;-85
2023/08/20 09:26:05;;;;;;;4.65;1.40;;;25.50;99.90;;;;;;5047290;28;20443;-86
2023/08/20 09:28:46;;;;;;;8.15;1.65;;;25.70;99.90;;;;;;5056190;28;20048;-87
2023/08/20 09:31:12;;;;;;;4.65;1.77;;;25.80;99.90;;;;;;5050751;28;20037;-86
2023/08/20 09:33:52;;;;;;;8.35;1.60;;;25.70;99.90;;;;;;5054930;28;20064;-87
2023/08/20 09:36:33;;;;;;;7.70;2.22;;;25.80;99.90;;;;;;5022994;28;20036;-87
2023/08/20 09:38:59;;;;;;;5.72;2.17;;;26.10;99.90;;;;;;5065901;28;20093;-86
2023/08/20 09:41:25;;;;;;;5.70;1.58;;;26.00;99.90;;;;;;5055609;28;20131;-86
2023/08/20 09:43:58;;;;;;;6.50;1.85;;;26.50;99.90;;;;;;5045869;28;20132;-87
2023/08/20 09:46:27;;;;;;;5.15;1.75;;;26.90;99.90;;;;;;5050904;28;20044;-86
2023/08/20 09:48:57;;;;;;;6.68;1.80;;;27.30;99.90;;;;;;5057283;28;20075;-87
2023/08/20 09:51:28;;;;;;;3.05;1.65;;;27.30;99.90;;;;;;5054682;28;20727;-85
2023/08/20 09:54:28;;;;;;;7.28;2.15;;;27.00;99.90;;;;;;5057015;28;20040;-86
2023/08/20 09:56:59;;;;;;;4.57;1.70;;;27.40;99.90;;;;;;5071194;28;20040;-87
2023/08/20 09:59:27;;;;;;;4.63;1.48;;;27.20;99.90;;;;;;5045897;28;20037;-87
2023/08/20 10:01:55;;;;;;;8.07;2.42;;;28.50;99.90;;;;;;5055139;28;20033;-86
2023/08/20 10:04:22;;;;;;;5.63;1.60;;;27.60;99.90;;;;;;5055791;28;20124;-86
2023/08/20 10:06:52;;;;;;;7.22;1.92;;;27.70;99.90;;;;;;5051203;28;20100;-88
2023/08/20 10:09:20;;;;;;;5.63;1.50;;;27.40;99.90;;;;;;5055479;28;20044;-87
2023/08/20 10:11:47;;;;;;;4.70;1.92;;;28.40;99.90;;;;;;5047240;28;20471;-86
2023/08/20 10:14:13;;;;;;;4.93;1.67;;;28.30;99.90;;;;;;5030117;28;20037;-87
2023/08/20 10:16:40;;;;;;;6.82;1.50;;;29.00;99.90;;;;;;5035100;28;20524;-86
2023/08/20 10:19:17;;;;;;;2.78;1.30;;;28.70;99.90;;;;;;5017116;28;20104;-88
2023/08/20 10:21:46;;;;;;;3.03;1.20;;;28.10;99.90;;;;;;5041719;28;20135;-87
2023/08/20 10:24:18;;;;;;;3.92;1.83;;;27.70;99.90;;;;;;5039082;28;20040;-87
2023/08/20 10:26:47;;;;;;;5.95;1.73;;;27.80;99.90;;;;;;5039476;28;20564;-85
2023/08/20 10:29:38;;;;;;;5.07;1.60;;;28.00;99.90;;;;;;5047228;28;20072;-86
2023/08/20 10:32:09;;;;;;;3.35;1.45;;;28.10;99.90;;;;;;5041886;28;20036;-86
2023/08/20 10:34:49;;;;;;;4.97;1.50;;;28.60;99.90;;;;;;5041824;28;20115;-86
2023/08/20 10:37:15;;;;;;;4.50;1.85;;;28.50;99.90;;;;;;5024781;28;20033;-87
2023/08/20 10:39:44;;;;;;;4.35;1.60;;;28.50;99.90;;;;;;5028507;28;20130;-86
2023/08/20 10:42:20;;;;;;;5.72;1.73;;;28.50;99.90;;;;;;5021809;28;20075;-87
2023/08/20 10:45:08;;;;;;;5.05;1.30;;;28.60;99.90;;;;;;5045825;28;20512;-88
2023/08/20 10:47:53;;;;;;;3.33;1.20;;;28.60;99.90;;;;;;5054859;28;20074;-88
2023/08/20 10:50:19;;;;;;;2.75;1.30;;;28.90;99.90;;;;;;5025219;28;20060;-86
2023/08/20 10:52:54;;;;;;;4.05;1.50;;;29.00;99.90;;;;;;5047060;28;20037;-86
2023/08/20 10:55:24;;;;;;;4.47;1.55;;;29.00;99.90;;;;;;5045051;28;20405;-88
2023/08/20 10:57:59;;;;;;;4.38;1.42;;;28.70;99.90;;;;;;5004441;28;20043;-87
2023/08/20 11:00:25;;;;;;;6.30;1.50;;;27.60;99.90;;;;;;5017395;28;20032;-87
2023/08/20 11:02:53;;;;;;;4.57;1.42;;;29.60;99.90;;;;;;5030997;28;20072;-87
2023/08/20 11:05:21;;;;;;;4.95;1.50;;;29.40;99.90;;;;;;5041728;28;20032;-86
2023/08/20 11:07:48;;;;;;;3.60;1.85;;;29.70;99.90;;;;;;5056561;28;20163;-86
2023/08/20 11:10:17;;;;;;;3.00;1.40;;;29.90;99.90;;;;;;5037533;28;20059;-87
2023/08/20 11:12:46;;;;;;;4.32;1.48;;;29.70;99.90;;;;;;5035069;28;20036;-87
2023/08/20 11:15:12;;;;;;;2.85;1.35;;;29.80;99.90;;;;;;5054959;28;20032;-86
2023/08/20 11:17:57;;;;;;;4.70;1.33;;;29.80;99.90;;;;;;5055647;28;20044;-86
2023/08/20 11:20:24;;;;;;;4.70;1.52;;;29.40;99.90;;;;;;5046103;28;20044;-86
2023/08/20 11:22:50;;;;;;;4.10;1.42;;;29.70;99.90;;;;;;5043290;28;20040;-87
2023/08/20 11:25:16;;;;;;;3.92;1.42;;;29.80;99.90;;;;;;5013512;28;20041;-87
2023/08/20 11:27:46;;;;;;;4.60;1.60;;;30.40;99.90;;;;;;4993470;28;20075;-86
2023/08/20 11:30:13;;;;;;;4.72;1.35;;;29.70;99.90;;;;;;5005531;28;20048;-86
2023/08/20 11:32:39;;;;;;;2.85;1.30;;;29.40;99.90;;;;;;5013740;28;20033;-87
2023/08/20 11:35:07;;;;;;;2.72;1.35;;;29.30;99.90;;;;;;5016795;28;20104;-87
2023/08/20 11:37:34;;;;;;;4.18;1.52;;;29.40;99.90;;;;;;5039179;28;20040;-86
2023/08/20 11:39:59;;;;;;;4.32;1.50;;;29.00;99.90;;;;;;5029190;28;20087;-87
2023/08/20 11:42:26;;;;;;;4.68;1.52;;;29.00;99.90;;;;;;5022296;28;20044;-86
2023/08/20 11:44:55;;;;;;;3.40;1.20;;;28.60;99.90;;;;;;5030558;28;20049;-86
2023/08/20 11:47:21;;;;;;;5.28;1.67;;;29.10;99.90;;;;;;5038917;28;20036;-88
2023/08/20 11:49:47;;;;;;;3.75;1.33;;;29.60;99.90;;;;;;4998206;28;20191;-87
2023/08/20 11:52:13;;;;;;;6.00;1.60;;;29.90;99.90;;;;;;5033248;28;21652;-87
2023/08/20 11:54:40;;;;;;;4.93;1.60;;;29.90;99.90;;;;;;5014481;28;20041;-87
2023/08/20 11:57:07;;;;;;;4.32;1.73;;;29.90;99.90;;;;;;5033709;28;20095;-86
2023/08/20 11:59:33;;;;;;;3.85;1.20;;;29.40;99.90;;;;;;5028167;28;20041;-87
2023/08/20 12:02:01;;;;;;;3.60;1.45;;;29.60;99.90;;;;;;5034741;28;20037;-86
2023/08/20 12:04:30;;;;;;;3.65;1.42;;;29.70;99.90;;;;;;5044853;28;20033;-88
2023/08/20 12:07:07;;;;;;;2.10;1.27;;;30.10;99.90;;;;;;5034113;28;20499;-87
2023/08/20 12:09:33;;;;;;;4.18;1.20;;;30.10;99.90;;;;;;5030035;28;20393;-87
2023/08/20 12:12:01;;;;;;;6.55;1.42;;;30.20;99.90;;;;;;5000615;28;20048;-88
2023/08/20 12:14:27;;;;;;;3.38;1.27;;;30.40;99.90;;;;;;5030781;28;20370;-87
2023/08/20 12:16:56;;;;;;;4.47;1.25;;;30.50;1.00;;;;;;5016870;28;20048;-87
2023/08/20 12:19:22;;;;;;;3.88;1.33;;;30.40;1.00;;;;;;5035638;28;20048;-88
2023/08/20 12:21:49;;;;;;;2.85;1.40;;;30.10;1.00;;;;;;5032336;28;20036;-88
2023/08/20 12:24:15;;;;;;;4.30;1.30;;;30.00;12.20;;;;;;5020299;28;20131;-87
2023/08/20 12:26:41;;;;;;;2.75;1.40;;;30.20;1.00;;;;;;4998917;28;20115;-88
2023/08/20 12:29:07;;;;;;;4.10;1.40;;;30.00;1.00;;;;;;5034677;28;20128;-88
2023/08/20 12:31:33;;;;;;;3.78;1.42;;;29.90;1.00;;;;;;5009397;28;20401;-88
2023/08/20 12:34:00;;;;;;;4.85;1.38;;;30.30;1.00;;;;;;5049839;28;20366;-87
2023/08/20 12:36:26;;;;;;;3.33;1.23;;;30.40;1.00;;;;;;5019866;28;20316;-85
2023/08/20 12:38:52;;;;;;;3.03;1.45;;;30.20;1.00;;;;;;5026162;28;20090;-89
2023/08/20 12:41:20;;;;;;;8.38;1.52;;;30.30;1.00;;;;;;5035071;28;20028;-87
2023/08/20 12:43:46;;;;;;;6.10;1.80;;;30.40;99.90;;;;;;5039277;28;20051;-88
2023/08/20 12:46:13;;;;;;;4.05;1.20;;;30.70;99.90;;;;;;5012666;28;20045;-88
2023/08/20 12:48:39;;;;;;;3.88;1.38;;;30.50;99.90;;;;;;5012299;28;20497;-87